Airport Name : El Paso Intl

Other Name : El Paso Intl

ICAO : KELP

IATA : ELP

FAA : ELP

Latitude : 31.80725

Longitude : -106.377583

Country : United States

Local Date and Time : 15 Jul 2024 11:27

 

TAF (Terminal Aerodrome Forecast)

KELP 151720Z 1518/1618 14005KT P6SM FEW080 FEW250

 

METAR (METeorological Aerodrome Report)

KELP 151651Z 12005KT 10SM FEW065 FEW250 32/14 A3013 RMK AO2 SLP118 T03170144

KELP 151551Z 16008KT 10SM FEW250 30/14 A3014 RMK AO2 SLP122 T03000144

KELP 151451Z 18007KT 10SM FEW250 28/15 A3015 RMK AO2 SLP125 T02830150 51007

KELP 151351Z 20005KT 10SM FEW250 27/14 A3015 RMK AO2 SLP125 T02670144